Yates, Illinois
Current Conditions -  °F | °C
As of 10:55 PM on Friday 21 Nov 2014 (Local Time) from KPNT Reporting Station
Overcast Overcast  
Wind Chill: 27°   Ceiling: 2100
Heat Index: 37°   Visibility: 10mi
Dew Point: 19°   Wind: 16mph
Humidity: 49%   Direction: 170°S
Pressure: 30.2"   Gusts: 23mph
Location:  40.7409°N, 88.7189°W
Report Text: KPNT 220455Z AUTO 17014G20KT 10SM OVC021 03/M07 A3020 RMK AO2 T00251074
Loading
Personal Weather Stations






























Interactive Weather Map New forecast layout! Learn more

10-Day Weather Forecast

Advertisements
Track Severe Weather on mobile